createdAt,value
2023-04-20T00:00:17.223Z,2.16
2023-04-20T00:01:16.804Z,2.16
2023-04-20T00:02:17.225Z,2.13
2023-04-20T00:03:17.007Z,2.13
2023-04-20T00:04:16.865Z,2.12
2023-04-20T00:05:16.605Z,2.09
2023-04-20T00:06:17.254Z,2.08
2023-04-20T00:07:16.812Z,2.06
2023-04-20T00:08:16.353Z,2.06
2023-04-20T00:09:17.002Z,2.08
2023-04-20T00:10:16.889Z,2.02
2023-04-20T00:11:16.452Z,2.02
2023-04-20T00:12:16.440Z,1.98
2023-04-20T00:13:17.040Z,1.97
2023-04-20T00:14:16.599Z,1.97
2023-04-20T00:15:17.159Z,1.92
2023-04-20T00:16:16.722Z,1.91
2023-04-20T00:17:16.370Z,1.91
2023-04-20T00:18:16.928Z,1.88
2023-04-20T00:19:16.728Z,1.88
2023-04-20T00:20:16.747Z,1.91
2023-04-20T00:21:17.333Z,1.92
2023-04-20T00:22:17.216Z,1.95
2023-04-20T00:23:16.769Z,1.94
2023-04-20T00:24:16.404Z,1.94
2023-04-20T00:25:16.999Z,1.94
2023-04-20T00:26:16.558Z,1.88
2023-04-20T00:27:17.084Z,1.84
2023-04-20T00:28:16.602Z,1.82
2023-04-20T00:29:17.259Z,1.78
2023-04-20T00:30:17.234Z,1.81
2023-04-20T00:31:16.816Z,1.80
2023-04-20T00:32:17.064Z,1.78
2023-04-20T00:33:16.621Z,1.78
2023-04-20T00:34:17.216Z,1.77
2023-04-20T00:35:16.789Z,1.75
2023-04-20T00:36:16.340Z,1.75
2023-04-20T00:37:16.940Z,1.77
2023-04-20T00:38:16.539Z,1.71
2023-04-20T00:39:17.266Z,1.71
2023-04-20T00:40:17.277Z,1.71
2023-04-20T00:41:16.821Z,1.71
2023-04-20T00:42:17.197Z,1.67
2023-04-20T00:43:16.764Z,1.69
2023-04-20T00:44:17.308Z,1.69
2023-04-20T00:45:16.855Z,1.67
2023-04-20T00:46:16.418Z,1.52
2023-04-20T00:47:17.049Z,1.33
2023-04-20T00:48:16.623Z,1.25
2023-04-20T00:49:17.300Z,1.25
2023-04-20T00:50:17.133Z,1.22
2023-04-20T00:51:16.714Z,1.26
2023-04-20T00:52:16.960Z,1.21
2023-04-20T00:53:16.537Z,1.22
2023-04-20T00:54:17.152Z,1.21
2023-04-20T00:55:16.706Z,1.15
2023-04-20T00:56:17.271Z,1.19
2023-04-20T00:57:16.845Z,1.19
2023-04-20T00:58:16.402Z,1.21
2023-04-20T00:59:17.238Z,1.21
2023-04-20T01:00:17.277Z,1.24
2023-04-20T01:01:16.814Z,1.21
2023-04-20T01:02:17.067Z,1.25
2023-04-20T01:03:16.747Z,1.45
2023-04-20T01:04:16.679Z,1.43
2023-04-20T01:05:16.662Z,1.33
2023-04-20T01:06:17.215Z,1.26
2023-04-20T01:07:16.749Z,1.29
2023-04-20T01:08:17.293Z,1.29
2023-04-20T01:09:17.104Z,1.36
2023-04-20T01:10:17.064Z,1.45
2023-04-20T01:11:16.623Z,1.45
2023-04-20T01:12:16.528Z,1.46
2023-04-20T01:13:17.121Z,1.36
2023-04-20T01:14:16.693Z,1.36
2023-04-20T01:15:17.258Z,1.38
2023-04-20T01:16:16.945Z,1.39
2023-04-20T01:17:16.602Z,1.38
2023-04-20T01:18:17.235Z,1.36
2023-04-20T01:19:17.063Z,1.33
2023-04-20T01:20:17.027Z,1.31
2023-04-20T01:21:16.621Z,1.28
2023-04-20T01:22:16.475Z,1.28
2023-04-20T01:23:17.023Z,1.28
2023-04-20T01:24:16.609Z,1.28
2023-04-20T01:25:17.208Z,1.24
2023-04-20T01:26:16.780Z,1.19
2023-04-20T01:27:16.320Z,1.19
2023-04-20T01:28:16.873Z,1.19
2023-04-20T01:29:16.614Z,1.19
2023-04-20T01:30:16.679Z,1.19
2023-04-20T01:31:17.256Z,1.16
2023-04-20T01:32:17.178Z,1.14
2023-04-20T01:33:16.702Z,1.12
2023-04-20T01:34:17.276Z,1.14
2023-04-20T01:35:16.836Z,1.11
2023-04-20T01:36:16.415Z,1.14
2023-04-20T01:37:16.951Z,1.12
2023-04-20T01:38:16.526Z,1.15
2023-04-20T01:39:17.281Z,1.15
2023-04-20T01:40:17.222Z,1.14
2023-04-20T01:41:16.765Z,1.11
2023-04-20T01:42:16.571Z,1.12
2023-04-20T01:43:17.159Z,1.09
2023-04-20T01:44:16.732Z,1.09
2023-04-20T01:45:17.300Z,1.12
2023-04-20T01:46:16.854Z,1.09
2023-04-20T01:47:16.507Z,1.09
2023-04-20T01:48:17.029Z,1.08
2023-04-20T01:49:16.722Z,1.08
2023-04-20T01:50:16.730Z,1.05
2023-04-20T01:51:17.262Z,1.05
2023-04-20T01:52:17.216Z,1.04
2023-04-20T01:53:16.784Z,0.99
2023-04-20T01:54:16.365Z,0.98
2023-04-20T01:55:17.877Z,0.99
2023-04-20T01:56:16.541Z,1.04
2023-04-20T01:57:17.102Z,1.04
2023-04-20T01:58:16.661Z,1.05
2023-04-20T01:59:17.391Z,1.08
2023-04-20T02:00:16.363Z,1.08
2023-04-20T02:01:16.926Z,1.07
2023-04-20T02:02:16.663Z,1.11
2023-04-20T02:03:16.894Z,1.15
2023-04-20T02:04:16.835Z,1.15
2023-04-20T02:05:16.506Z,1.15
2023-04-20T02:06:17.066Z,1.19
2023-04-20T02:07:16.681Z,1.39
2023-04-20T02:08:17.307Z,1.39
2023-04-20T02:09:17.125Z,1.39
2023-04-20T02:10:17.166Z,1.38
2023-04-20T02:11:16.726Z,1.40
2023-04-20T02:12:16.322Z,1.42
2023-04-20T02:13:16.904Z,1.42
2023-04-20T02:14:16.502Z,1.45
2023-04-20T02:15:17.076Z,1.47
2023-04-20T02:16:16.619Z,1.52
2023-04-20T02:17:17.287Z,1.54
2023-04-20T02:18:16.939Z,1.54
2023-04-20T02:19:16.693Z,1.56
2023-04-20T02:20:16.778Z,1.52
2023-04-20T02:21:16.339Z,1.54
2023-04-20T02:22:16.634Z,1.57
2023-04-20T02:23:17.200Z,1.64
2023-04-20T02:24:16.738Z,1.64
2023-04-20T02:25:17.287Z,1.66
2023-04-20T02:26:16.888Z,1.75
2023-04-20T02:27:16.447Z,1.75
2023-04-20T02:28:17.068Z,1.74
2023-04-20T02:29:16.821Z,1.70
2023-04-20T02:30:17.196Z,1.50
2023-04-20T02:31:16.811Z,1.45
2023-04-20T02:32:16.758Z,1.42
2023-04-20T02:33:17.324Z,1.42
2023-04-20T02:34:16.897Z,1.40
2023-04-20T02:35:16.447Z,1.39
2023-04-20T02:36:17.065Z,1.31
2023-04-20T02:37:16.677Z,1.29
2023-04-20T02:38:17.299Z,1.26
2023-04-20T02:39:17.040Z,1.24
2023-04-20T02:40:17.160Z,1.22
2023-04-20T02:41:16.743Z,1.21
2023-04-20T02:42:17.167Z,1.21
2023-04-20T02:43:16.754Z,1.19
2023-04-20T02:44:17.316Z,1.19
2023-04-20T02:45:16.880Z,1.16
2023-04-20T02:46:16.452Z,1.16
2023-04-20T02:47:17.054Z,1.09
2023-04-20T02:48:16.777Z,1.05
2023-04-20T02:49:16.572Z,1.01
2023-04-20T02:50:16.575Z,0.95
2023-04-20T02:51:17.113Z,0.94
2023-04-20T02:52:17.035Z,0.92
2023-04-20T02:53:16.587Z,0.91
2023-04-20T02:54:17.116Z,0.91
2023-04-20T02:55:16.690Z,0.91
2023-04-20T02:56:17.299Z,0.92
2023-04-20T02:57:16.850Z,0.95
2023-04-20T02:58:16.464Z,0.94
2023-04-20T02:59:17.198Z,0.95
2023-04-20T03:00:16.433Z,0.99
2023-04-20T03:01:16.991Z,1.09
2023-04-20T03:02:17.167Z,1.12
2023-04-20T03:03:16.962Z,1.14
2023-04-20T03:04:16.911Z,1.07
2023-04-20T03:05:16.743Z,1.02
2023-04-20T03:06:16.335Z,1.04
2023-04-20T03:07:16.958Z,1.02
2023-04-20T03:08:16.492Z,1.02
2023-04-20T03:09:17.267Z,1.05
2023-04-20T03:10:17.258Z,0.98
2023-04-20T03:11:16.841Z,0.95
2023-04-20T03:12:16.870Z,0.97
2023-04-20T03:13:16.424Z,0.97
2023-04-20T03:14:17.004Z,0.92
2023-04-20T03:15:16.612Z,0.91
2023-04-20T03:16:17.219Z,0.84
2023-04-20T03:17:16.877Z,0.83
2023-04-20T03:18:16.448Z,0.83
2023-04-20T03:19:17.194Z,0.85
2023-04-20T03:20:17.345Z,0.84
2023-04-20T03:21:16.874Z,0.81
2023-04-20T03:22:17.070Z,0.81
2023-04-20T03:23:16.634Z,0.81
2023-04-20T03:24:17.216Z,0.83
2023-04-20T03:25:16.815Z,0.81
2023-04-20T03:26:16.398Z,0.83
2023-04-20T03:27:16.961Z,0.79
2023-04-20T03:28:16.560Z,0.76
2023-04-20T03:29:17.361Z,0.77
2023-04-20T03:30:16.601Z,0.79
2023-04-20T03:31:17.183Z,0.84
2023-04-20T03:32:16.891Z,0.88
2023-04-20T03:33:16.443Z,0.90
2023-04-20T03:34:16.987Z,0.88
2023-04-20T03:35:16.552Z,0.90
2023-04-20T03:36:17.118Z,0.90
2023-04-20T03:37:16.706Z,0.87
2023-04-20T03:38:17.282Z,0.87
2023-04-20T03:39:17.089Z,0.85
2023-04-20T03:40:17.326Z,0.84
2023-04-20T03:41:16.941Z,0.83
2023-04-20T03:42:16.462Z,0.81
2023-04-20T03:43:17.045Z,0.81
2023-04-20T03:44:16.572Z,0.77
2023-04-20T03:45:17.219Z,0.74
2023-04-20T03:46:16.888Z,0.74
2023-04-20T03:47:16.632Z,0.76
2023-04-20T03:48:17.224Z,0.74
2023-04-20T03:49:16.933Z,0.77
2023-04-20T03:50:17.059Z,0.77
2023-04-20T03:51:16.598Z,0.76
2023-04-20T03:52:17.346Z,0.80
2023-04-20T03:53:16.931Z,0.79
2023-04-20T03:54:16.479Z,0.79
2023-04-20T03:55:17.051Z,0.80
2023-04-20T03:56:16.623Z,0.81
2023-04-20T03:57:17.255Z,0.85
2023-04-20T03:58:16.798Z,0.87
2023-04-20T03:59:16.598Z,0.87
2023-04-20T04:00:16.493Z,0.87
2023-04-20T04:01:17.038Z,0.88
2023-04-20T04:02:16.928Z,0.88
2023-04-20T04:03:16.998Z,0.94
2023-04-20T04:04:17.087Z,1.11
2023-04-20T04:05:17.264Z,1.16
2023-04-20T04:06:17.020Z,1.18
2023-04-20T04:07:16.589Z,1.11
2023-04-20T04:08:17.264Z,1.07
2023-04-20T04:09:16.998Z,1.04
2023-04-20T04:10:16.933Z,1.05
2023-04-20T04:11:16.560Z,1.07
2023-04-20T04:12:17.289Z,1.05
2023-04-20T04:13:16.856Z,1.04
2023-04-20T04:14:16.428Z,1.09
2023-04-20T04:15:16.968Z,1.14
2023-04-20T04:16:16.528Z,1.14
2023-04-20T04:17:17.139Z,1.14
2023-04-20T04:18:16.765Z,1.12
2023-04-20T04:19:16.547Z,1.09
2023-04-20T04:20:16.654Z,1.09
2023-04-20T04:21:16.322Z,1.11
2023-04-20T04:22:16.639Z,1.12
2023-04-20T04:23:17.286Z,1.15
2023-04-20T04:24:16.854Z,1.14
2023-04-20T04:25:16.416Z,1.11
2023-04-20T04:26:16.946Z,1.14
2023-04-20T04:27:16.513Z,1.14
2023-04-20T04:28:17.102Z,1.19
2023-04-20T04:29:16.893Z,1.16
2023-04-20T04:30:16.975Z,1.19
2023-04-20T04:31:16.541Z,1.18
2023-04-20T04:32:16.456Z,1.21
2023-04-20T04:33:17.025Z,1.25
2023-04-20T04:34:16.586Z,1.24
2023-04-20T04:35:17.208Z,1.25
2023-04-20T04:36:16.792Z,1.26
2023-04-20T04:37:16.413Z,1.25
2023-04-20T04:38:16.999Z,1.31
2023-04-20T04:39:16.765Z,1.31
2023-04-20T04:40:16.839Z,1.35
2023-04-20T04:41:16.392Z,1.38
2023-04-20T04:42:17.286Z,1.50
2023-04-20T04:43:16.849Z,1.45
2023-04-20T04:44:16.417Z,1.45
2023-04-20T04:45:17.012Z,1.50
2023-04-20T04:46:16.588Z,1.53
2023-04-20T04:47:17.205Z,1.61
2023-04-20T04:48:16.738Z,1.67
2023-04-20T04:49:16.641Z,1.70
2023-04-20T04:50:17.006Z,1.78
2023-04-20T04:51:16.556Z,1.85
2023-04-20T04:52:16.519Z,1.92
2023-04-20T04:53:17.066Z,1.98
2023-04-20T04:54:16.650Z,2.04
2023-04-20T04:55:17.211Z,2.06
2023-04-20T04:56:16.748Z,2.08
2023-04-20T04:57:17.294Z,2.12
2023-04-20T04:58:16.889Z,2.10
2023-04-20T04:59:16.684Z,2.09
2023-04-20T05:00:16.753Z,2.09
2023-04-20T05:01:17.341Z,2.06
2023-04-20T05:02:16.384Z,2.09
2023-04-20T05:03:16.716Z,2.08
2023-04-20T05:04:16.654Z,2.10
2023-04-20T05:05:17.301Z,2.10
2023-04-20T05:06:16.822Z,2.16
2023-04-20T05:07:16.372Z,2.29
2023-04-20T05:08:16.969Z,2.34
2023-04-20T05:09:16.845Z,2.40
2023-04-20T05:10:17.055Z,2.39
2023-04-20T05:11:16.669Z,2.51
2023-04-20T05:12:16.410Z,2.54
2023-04-20T05:13:17.092Z,2.68
2023-04-20T05:14:16.677Z,2.74
2023-04-20T05:15:17.211Z,2.84
2023-04-20T05:16:16.807Z,2.88
2023-04-20T05:17:16.486Z,3.00
2023-04-20T05:18:17.064Z,3.07
2023-04-20T05:19:16.814Z,3.16
2023-04-20T05:20:16.901Z,3.12
2023-04-20T05:21:16.450Z,3.09
2023-04-20T05:22:17.150Z,3.19
2023-04-20T05:23:16.704Z,3.23
2023-04-20T05:24:16.661Z,3.37
2023-04-20T05:25:17.232Z,3.50
2023-04-20T05:26:16.756Z,3.58
2023-04-20T05:27:17.311Z,3.65
2023-04-20T05:28:16.894Z,3.72
2023-04-20T05:29:16.646Z,3.78
2023-04-20T05:30:20.126Z,3.79
2023-04-20T05:31:16.708Z,3.81
2023-04-20T05:32:16.873Z,3.65
2023-04-20T05:33:16.429Z,3.75
2023-04-20T05:34:17.016Z,3.85
2023-04-20T05:35:16.601Z,3.99
2023-04-20T05:36:17.163Z,4.09
2023-04-20T05:37:16.745Z,4.23
2023-04-20T05:38:17.304Z,4.42
2023-04-20T05:39:17.309Z,4.50
2023-04-20T05:40:16.515Z,4.72
2023-04-20T05:41:17.082Z,4.90
2023-04-20T05:42:16.332Z,4.83
2023-04-20T05:43:16.862Z,4.83
2023-04-20T05:44:16.490Z,5.08
2023-04-20T05:45:17.073Z,5.27
2023-04-20T05:46:16.680Z,5.27
2023-04-20T05:47:16.338Z,5.02
2023-04-20T05:48:16.921Z,4.92
2023-04-20T05:49:16.632Z,5.08
2023-04-20T05:50:16.697Z,5.21
2023-04-20T05:51:17.326Z,5.28
2023-04-20T05:52:16.408Z,5.55
2023-04-20T05:53:16.942Z,5.58
2023-04-20T05:54:16.543Z,5.66
2023-04-20T05:55:18.478Z,5.93
2023-04-20T05:56:16.556Z,5.96
2023-04-20T05:57:17.250Z,5.85
2023-04-20T05:58:16.818Z,6.03
2023-04-20T05:59:16.573Z,6.14
2023-04-20T06:00:16.635Z,6.29
2023-04-20T06:01:17.247Z,6.22
2023-04-20T06:02:16.576Z,6.28
2023-04-20T06:03:16.440Z,6.35
2023-04-20T06:04:16.752Z,6.35
2023-04-20T06:05:17.069Z,6.18
2023-04-20T06:06:17.012Z,6.29
2023-04-20T06:07:16.635Z,6.52
2023-04-20T06:08:17.226Z,6.50
2023-04-20T06:09:17.016Z,6.66
2023-04-20T06:10:17.062Z,6.50
2023-04-20T06:11:16.604Z,6.43
2023-04-20T06:12:17.338Z,6.21
2023-04-20T06:13:16.895Z,6.33
2023-04-20T06:14:16.725Z,6.60
2023-04-20T06:15:16.767Z,6.74
2023-04-20T06:16:17.377Z,6.84
2023-04-20T06:17:17.009Z,6.95
2023-04-20T06:18:16.592Z,6.93
2023-04-20T06:19:17.356Z,6.83
2023-04-20T06:20:16.541Z,6.97
2023-04-20T06:21:17.149Z,7.05
2023-04-20T06:22:16.450Z,7.10
2023-04-20T06:23:17.063Z,6.97
2023-04-20T06:24:16.613Z,6.59
2023-04-20T06:25:17.166Z,6.74
2023-04-20T06:26:16.790Z,6.95
2023-04-20T06:27:16.341Z,7.18
2023-04-20T06:28:16.940Z,6.83
2023-04-20T06:29:16.827Z,7.00
2023-04-20T06:30:16.803Z,7.05
2023-04-20T06:31:16.423Z,7.38
2023-04-20T06:32:17.191Z,7.42
2023-04-20T06:33:16.761Z,6.91
2023-04-20T06:34:16.371Z,7.50
2023-04-20T06:35:16.904Z,7.84
2023-04-20T06:36:16.456Z,7.45
2023-04-20T06:37:16.993Z,8.15
2023-04-20T06:38:16.632Z,8.56
2023-04-20T06:39:17.393Z,8.79
2023-04-20T06:40:16.482Z,8.81
2023-04-20T06:41:17.191Z,8.51
2023-04-20T06:42:16.940Z,8.09
2023-04-20T06:43:16.576Z,8.67
2023-04-20T06:44:17.147Z,8.95
2023-04-20T06:45:16.751Z,9.22
2023-04-20T06:46:17.346Z,9.10
2023-04-20T06:47:16.979Z,9.50
2023-04-20T06:48:30.595Z,9.91
2023-04-20T06:49:17.339Z,10.19
2023-04-20T06:50:16.554Z,10.27
2023-04-20T06:51:17.111Z,9.58
2023-04-20T06:52:17.342Z,9.54
2023-04-20T06:53:16.914Z,9.86
2023-04-20T06:54:16.582Z,9.84
2023-04-20T06:55:17.224Z,9.75
2023-04-20T06:56:16.795Z,9.48
2023-04-20T06:57:16.350Z,9.15
2023-04-20T06:58:16.898Z,9.15
2023-04-20T06:59:16.590Z,9.22
2023-04-20T07:00:16.691Z,8.60
2023-04-20T07:01:17.363Z,9.25
2023-04-20T07:02:17.251Z,9.57
2023-04-20T07:03:17.159Z,9.22
2023-04-20T07:04:17.067Z,9.44
2023-04-20T07:05:16.811Z,9.44
2023-04-20T07:06:16.418Z,9.98
2023-04-20T07:07:17.002Z,10.34
2023-04-20T07:08:16.598Z,10.75
2023-04-20T07:09:17.393Z,10.70
2023-04-20T07:10:16.424Z,10.31
2023-04-20T07:11:16.998Z,10.49
2023-04-20T07:12:16.643Z,9.96
2023-04-20T07:13:17.228Z,9.03
2023-04-20T07:14:16.818Z,9.61
2023-04-20T07:15:16.426Z,10.36
2023-04-20T07:16:17.034Z,10.88
2023-04-20T07:17:16.849Z,11.62
2023-04-20T07:18:16.401Z,11.96
2023-04-20T07:19:17.164Z,12.55
2023-04-20T07:20:17.058Z,12.55
2023-04-20T07:21:16.608Z,12.62
2023-04-20T07:22:16.828Z,12.63
2023-04-20T07:23:16.375Z,12.60
2023-04-20T07:24:16.945Z,12.31
2023-04-20T07:25:16.532Z,11.93
2023-04-20T07:26:17.094Z,10.49
2023-04-20T07:27:16.691Z,11.14
2023-04-20T07:28:17.249Z,11.02
2023-04-20T07:29:17.148Z,10.89
2023-04-20T07:30:17.188Z,10.26
2023-04-20T07:31:16.782Z,10.71
2023-04-20T07:32:16.458Z,10.23
2023-04-20T07:33:17.065Z,10.21
2023-04-20T07:34:16.825Z,10.67
2023-04-20T07:35:16.991Z,10.62
2023-04-20T07:36:16.569Z,10.79
2023-04-20T07:37:17.140Z,10.54
2023-04-20T07:38:16.712Z,10.52
2023-04-20T07:39:17.482Z,10.89
2023-04-20T07:40:16.521Z,10.81
2023-04-20T07:41:17.140Z,11.02
2023-04-20T07:42:17.013Z,11.35
2023-04-20T07:43:16.602Z,11.51
2023-04-20T07:44:17.125Z,11.92
2023-04-20T07:45:16.674Z,12.40
2023-04-20T07:46:17.312Z,12.49
2023-04-20T07:47:17.146Z,12.35
2023-04-20T07:48:16.767Z,12.44
2023-04-20T07:49:16.468Z,12.93
2023-04-20T07:50:16.544Z,12.04
2023-04-20T07:51:17.125Z,12.24
2023-04-20T07:52:17.542Z,12.12
2023-04-20T07:53:17.151Z,11.93
2023-04-20T07:54:16.688Z,11.61
2023-04-20T07:55:17.270Z,12.04
2023-04-20T07:56:16.902Z,12.80
2023-04-20T07:57:16.648Z,12.97
2023-04-20T07:58:17.383Z,12.77
2023-04-20T07:59:17.089Z,10.78
2023-04-20T08:00:17.059Z,11.45
2023-04-20T08:01:16.618Z,11.92
2023-04-20T08:02:17.182Z,12.86
2023-04-20T08:03:17.005Z,12.84
2023-04-20T08:04:17.114Z,13.37
2023-04-20T08:05:17.451Z,12.69
2023-04-20T08:06:16.461Z,11.83
2023-04-20T08:07:17.060Z,11.80
2023-04-20T08:08:16.592Z,11.69
2023-04-20T08:09:17.281Z,11.16
2023-04-20T08:10:17.167Z,11.38
2023-04-20T08:11:16.753Z,11.68
2023-04-20T08:12:16.646Z,12.41
2023-04-20T08:13:17.210Z,12.66
2023-04-20T08:14:16.972Z,12.69
2023-04-20T08:15:16.946Z,11.89
2023-04-20T08:16:16.553Z,11.40
2023-04-20T08:17:17.279Z,11.64
2023-04-20T08:18:16.909Z,11.99
2023-04-20T08:19:16.455Z,11.58
2023-04-20T08:20:17.038Z,11.89
2023-04-20T08:21:16.572Z,11.69
2023-04-20T08:22:16.686Z,12.04
2023-04-20T08:23:17.715Z,12.21
2023-04-20T08:24:17.384Z,12.07
2023-04-20T08:25:16.499Z,11.99
2023-04-20T08:26:17.039Z,11.86
2023-04-20T08:27:16.592Z,12.03
2023-04-20T08:28:24.450Z,11.54
2023-04-20T08:29:17.267Z,11.90
2023-04-20T08:30:16.837Z,12.19
2023-04-20T08:31:16.449Z,12.75
2023-04-20T08:32:16.508Z,12.28
2023-04-20T08:33:17.108Z,11.61
2023-04-20T08:34:16.758Z,11.28
2023-04-20T08:35:16.485Z,11.11
2023-04-20T08:36:17.118Z,11.24
2023-04-20T08:37:16.692Z,10.74
2023-04-20T08:38:18.242Z,10.44
2023-04-20T08:39:17.194Z,10.92
2023-04-20T08:40:16.726Z,11.24
2023-04-20T08:41:17.316Z,11.28
2023-04-20T08:42:17.302Z,11.03
2023-04-20T08:43:16.896Z,11.26
2023-04-20T08:44:16.702Z,11.28
2023-04-20T08:45:16.634Z,11.30
2023-04-20T08:46:17.238Z,11.61
2023-04-20T08:47:16.865Z,11.88
2023-04-20T08:48:16.431Z,11.50
2023-04-20T08:49:16.999Z,11.04
2023-04-20T08:50:16.555Z,11.68
2023-04-20T08:51:17.108Z,11.02
2023-04-20T08:52:17.239Z,11.54
2023-04-20T08:53:16.832Z,11.72
2023-04-20T08:54:16.657Z,11.31
2023-04-20T08:55:16.872Z,10.98
2023-04-20T08:56:16.516Z,11.30
2023-04-20T08:57:17.089Z,10.09
2023-04-20T08:58:16.653Z,9.93
2023-04-20T08:59:17.196Z,10.40
2023-04-20T09:00:16.761Z,10.78
2023-04-20T09:01:19.954Z,10.28
2023-04-20T09:02:16.634Z,10.68
2023-04-20T09:03:16.599Z,11.24
2023-04-20T09:04:17.210Z,10.95
2023-04-20T09:05:16.354Z,11.30
2023-04-20T09:06:17.046Z,11.24
2023-04-20T09:07:16.614Z,10.89
2023-04-20T09:08:17.166Z,11.40
2023-04-20T09:09:16.702Z,11.40
2023-04-20T09:10:17.281Z,10.70
2023-04-20T09:11:16.830Z,10.92
2023-04-20T09:12:16.525Z,10.92
2023-04-20T09:13:17.082Z,11.09
2023-04-20T09:14:17.068Z,10.99
2023-04-20T09:15:17.122Z,10.78
2023-04-20T09:16:16.679Z,10.89
2023-04-20T09:17:17.363Z,10.21
2023-04-20T09:18:16.912Z,10.49
2023-04-20T09:19:16.470Z,10.81
2023-04-20T09:20:17.022Z,10.98
2023-04-20T09:21:16.612Z,10.88
2023-04-20T09:22:17.205Z,10.55
2023-04-20T09:23:16.758Z,9.58
2023-04-20T09:24:16.462Z,9.51
2023-04-20T09:25:16.658Z,9.51
2023-04-20T09:26:17.228Z,9.62
2023-04-20T09:27:16.819Z,9.61
2023-04-20T09:28:16.427Z,9.66
2023-04-20T09:29:17.029Z,9.48
2023-04-20T09:30:16.556Z,9.76
2023-04-20T09:31:17.107Z,9.69
2023-04-20T09:32:17.248Z,9.53
2023-04-20T09:33:16.862Z,9.65
2023-04-20T09:34:16.577Z,9.71
2023-04-20T09:35:16.612Z,9.27
2023-04-20T09:36:17.196Z,9.08
2023-04-20T09:37:16.769Z,9.23
2023-04-20T09:38:16.335Z,9.40
2023-04-20T09:39:16.921Z,9.57
2023-04-20T09:40:16.512Z,9.33
2023-04-20T09:41:17.047Z,9.55
2023-04-20T09:42:16.895Z,9.36
2023-04-20T09:43:16.442Z,8.95
2023-04-20T09:44:17.325Z,9.23
2023-04-20T09:45:16.389Z,9.20
2023-04-20T09:46:16.963Z,8.94
2023-04-20T09:47:16.657Z,9.19
2023-04-20T09:48:17.209Z,9.37
2023-04-20T09:49:16.775Z,9.71
2023-04-20T09:51:17.200Z,9.88
2023-04-20T09:52:16.588Z,9.78
2023-04-20T09:53:17.154Z,9.50
2023-04-20T09:54:16.879Z,9.59
2023-04-20T09:55:17.015Z,9.80
2023-04-20T09:56:16.580Z,9.85
2023-04-20T09:57:17.179Z,9.78
2023-04-20T09:58:16.753Z,9.89
2023-04-20T09:59:17.310Z,10.09
2023-04-20T10:00:16.888Z,10.02
2023-04-20T10:01:16.510Z,10.05
2023-04-20T10:02:17.068Z,9.75
2023-04-20T10:03:16.838Z,10.13
2023-04-20T10:04:17.135Z,10.03
2023-04-20T10:05:16.648Z,9.89
2023-04-20T10:06:17.199Z,9.85
2023-04-20T10:07:16.750Z,9.64
2023-04-20T10:08:17.278Z,9.57
2023-04-20T10:09:16.832Z,9.81
2023-04-20T10:10:16.383Z,9.95
2023-04-20T10:11:16.979Z,9.86
2023-04-20T10:12:16.850Z,9.75
2023-04-20T10:13:16.404Z,9.33
2023-04-20T10:14:17.182Z,9.33
2023-04-20T10:15:16.395Z,9.53
2023-04-20T10:16:16.960Z,9.76
2023-04-20T10:17:16.618Z,9.78
2023-04-20T10:18:16.492Z,9.82
2023-04-20T10:19:17.315Z,9.74
2023-04-20T10:20:16.866Z,9.03
2023-04-20T10:21:16.455Z,9.20
2023-04-20T10:22:16.496Z,9.29
2023-04-20T10:23:17.043Z,9.50
2023-04-20T10:24:18.229Z,9.57
2023-04-20T10:25:16.882Z,9.75
2023-04-20T10:26:16.436Z,10.00
2023-04-20T10:27:17.041Z,10.14
2023-04-20T10:28:16.564Z,9.91
2023-04-20T10:29:17.123Z,9.82
2023-04-20T10:30:16.673Z,9.85
2023-04-20T10:31:17.343Z,9.99
2023-04-20T10:32:16.917Z,10.19
2023-04-20T10:33:16.496Z,10.10
2023-04-20T10:34:17.415Z,10.10
2023-04-20T10:35:16.506Z,9.96
2023-04-20T10:36:17.058Z,9.43
2023-04-20T10:37:16.618Z,9.43
2023-04-20T10:38:17.222Z,9.25
2023-04-20T10:39:18.783Z,9.41
2023-04-20T10:40:16.368Z,9.25
2023-04-20T10:41:16.920Z,9.18
2023-04-20T10:42:18.125Z,8.87
2023-04-20T10:43:16.798Z,9.12
2023-04-20T10:44:16.499Z,9.10
2023-04-20T10:45:16.400Z,9.16
2023-04-20T10:46:16.991Z,8.76
2023-04-20T10:47:16.627Z,8.78
2023-04-20T10:48:18.185Z,8.91
2023-04-20T10:49:17.177Z,9.03
2023-04-20T10:50:17.093Z,8.64
2023-04-20T10:51:16.640Z,8.78
2023-04-20T10:52:17.012Z,8.79
2023-04-20T10:53:16.551Z,8.87
2023-04-20T10:54:18.396Z,8.82
2023-04-20T10:55:17.030Z,8.81
2023-04-20T10:56:16.597Z,8.95
2023-04-20T10:57:17.185Z,9.01
2023-04-20T10:58:16.748Z,9.34
2023-04-20T10:59:17.402Z,9.25
2023-04-20T11:00:16.620Z,9.12
2023-04-20T11:01:17.211Z,9.06
2023-04-20T11:02:17.094Z,9.02
2023-04-20T11:03:17.071Z,9.13
2023-04-20T11:04:18.760Z,9.08
2023-04-20T11:05:17.039Z,9.15
2023-04-20T11:06:16.760Z,9.23
2023-04-20T11:07:17.324Z,9.36
2023-04-20T11:08:16.898Z,9.09
2023-04-20T11:09:16.603Z,8.91
2023-04-20T11:10:16.779Z,8.87
2023-04-20T11:11:16.502Z,8.88
2023-04-20T11:12:16.994Z,9.09
2023-04-20T11:13:16.539Z,8.99
2023-04-20T11:14:17.149Z,9.20
2023-04-20T11:15:16.722Z,9.36
2023-04-20T11:16:17.322Z,9.48
2023-04-20T11:17:17.053Z,9.27
2023-04-20T11:18:16.792Z,9.16
2023-04-20T11:19:16.543Z,9.40
2023-04-20T11:20:16.585Z,9.33
2023-04-20T11:21:16.565Z,9.41
2023-04-20T11:22:17.305Z,9.36
2023-04-20T11:23:16.416Z,9.03
2023-04-20T11:24:16.972Z,9.15
2023-04-20T11:25:16.574Z,9.10
2023-04-20T11:26:17.155Z,8.98
2023-04-20T11:27:16.713Z,8.82
2023-04-20T11:28:17.296Z,8.94
2023-04-20T11:29:17.143Z,8.90
2023-04-20T11:30:17.226Z,9.03
2023-04-20T11:31:16.849Z,9.29
2023-04-20T11:32:16.961Z,9.43
2023-04-20T11:33:16.780Z,9.61
2023-04-20T11:34:16.671Z,9.66
2023-04-20T11:35:17.268Z,9.53
2023-04-20T11:36:16.826Z,9.69
2023-04-20T11:37:16.390Z,9.80
2023-04-20T11:38:16.932Z,9.96
2023-04-20T11:39:16.740Z,10.06
2023-04-20T11:40:16.673Z,10.17
2023-04-20T11:41:17.317Z,10.09
2023-04-20T11:42:16.996Z,10.03
2023-04-20T11:43:16.573Z,10.10
2023-04-20T11:44:17.159Z,10.24
2023-04-20T11:45:16.737Z,10.02
2023-04-20T11:46:17.414Z,9.85
2023-04-20T11:47:17.159Z,9.61
2023-04-20T11:48:16.691Z,9.15
2023-04-20T11:49:17.387Z,9.53
2023-04-20T11:50:16.465Z,9.50
2023-04-20T11:51:17.128Z,9.43
2023-04-20T11:52:17.083Z,9.36
2023-04-20T11:53:16.643Z,9.36
2023-04-20T11:54:17.232Z,9.48
2023-04-20T11:55:16.812Z,9.72
2023-04-20T11:56:16.362Z,9.65
2023-04-20T11:57:16.924Z,9.47
2023-04-20T11:58:16.483Z,9.62
2023-04-20T11:59:17.358Z,9.71
2023-04-20T12:00:16.436Z,9.98
2023-04-20T12:01:17.024Z,10.08
2023-04-20T12:02:17.118Z,10.14
2023-04-20T12:03:17.101Z,10.12
2023-04-20T12:04:17.469Z,9.96
2023-04-20T12:05:17.041Z,9.99
2023-04-20T12:06:16.719Z,9.99
2023-04-20T12:07:17.289Z,9.88
2023-04-20T12:08:16.829Z,9.85
2023-04-20T12:09:16.581Z,9.57
2023-04-20T12:10:16.730Z,9.57
2023-04-20T12:11:16.333Z,9.62
2023-04-20T12:12:17.077Z,9.46
2023-04-20T12:13:16.702Z,9.27
2023-04-20T12:14:17.238Z,9.16
2023-04-20T12:15:16.775Z,9.16
2023-04-20T12:16:16.408Z,9.12
2023-04-20T12:17:17.018Z,9.06
2023-04-20T12:18:16.545Z,9.20
2023-04-20T12:19:17.424Z,9.25
2023-04-20T12:20:16.601Z,9.30
2023-04-20T12:21:17.165Z,9.31
2023-04-20T12:22:16.980Z,9.23
2023-04-20T12:23:16.533Z,8.64
2023-04-20T12:24:17.133Z,8.74
2023-04-20T12:25:16.714Z,8.75
2023-04-20T12:26:16.372Z,8.79
2023-04-20T12:27:16.923Z,8.64
2023-04-20T12:28:16.473Z,8.65
2023-04-20T12:29:17.209Z,8.61
2023-04-20T12:30:16.313Z,8.71
2023-04-20T12:31:16.919Z,8.74
2023-04-20T12:32:16.942Z,8.79
2023-04-20T12:33:16.512Z,8.67
2023-04-20T12:34:17.401Z,8.67
2023-04-20T12:35:16.672Z,8.67
2023-04-20T12:36:17.210Z,8.71
2023-04-20T12:37:16.744Z,8.61
2023-04-20T12:38:17.317Z,8.69
2023-04-20T12:39:16.905Z,8.71
2023-04-20T12:40:16.493Z,8.58
2023-04-20T12:41:17.032Z,8.65
2023-04-20T12:42:16.955Z,8.72
2023-04-20T12:43:16.543Z,8.71
2023-04-20T12:44:17.276Z,8.57
2023-04-20T12:45:16.404Z,8.54
2023-04-20T12:46:16.967Z,8.63
2023-04-20T12:47:16.620Z,8.63
2023-04-20T12:48:17.226Z,8.67
2023-04-20T12:49:17.155Z,8.68
2023-04-20T12:50:17.279Z,8.72
2023-04-20T12:51:16.821Z,8.74
2023-04-20T12:52:16.761Z,8.69
2023-04-20T12:53:17.312Z,8.58
2023-04-20T12:54:16.967Z,8.63
2023-04-20T12:55:17.126Z,8.54
2023-04-20T12:56:16.677Z,8.63
2023-04-20T12:57:17.254Z,8.68
2023-04-20T12:58:16.800Z,8.74
2023-04-20T12:59:16.345Z,8.69
2023-04-20T13:00:16.895Z,8.64
2023-04-20T13:01:16.472Z,8.63
2023-04-20T13:02:16.386Z,8.63
2023-04-20T13:03:17.254Z,8.74
2023-04-20T13:04:16.728Z,8.78
2023-04-20T13:05:16.406Z,8.78
2023-04-20T13:06:16.981Z,8.74
2023-04-20T13:07:16.529Z,8.64
2023-04-20T13:08:17.199Z,8.65
2023-04-20T13:09:16.790Z,8.63
2023-04-20T13:10:16.396Z,8.69
2023-04-20T13:11:17.065Z,8.76
2023-04-20T13:12:16.901Z,8.68
2023-04-20T13:13:16.443Z,8.67
2023-04-20T13:14:17.267Z,8.63